Rickenbacker International Airport
KLCK : now visible

Airfield :











YOU CAN JOIN US ON...

 
LOGIN :

Register | Disclaimer

   EN    FR    IT 

 









Legend :    VFR   Marginal VFR   IFR   Intensive IFR   Very Intensive IFR
Visi :
Ceiling :
>= 8 km
>= 3000ft
5 to 8 km
1000 to 3000 ft
1500m to 5 km
500 to 1000 ft
800 to 1500m
200 to 500 ft
< 800m
< 200 ft
Symbols :   Thunderstorms  Fog  Heavy snow  Heavy precipitations  Wind > 20 kt






- Airport Elevation : 744 ft


KLCK - Rickenbacker International

CURRENT METAR :
  • 122055Z AUTO 14005KT 10SM CLR 04/M05 A3040 RMK AO2 T00391047

EXPIRED METARs :
  • 121955Z AUTO 16007KT 10SM CLR 05/M05 A3041 RMK AO2 T00451052
  • 121855Z AUTO 17008KT 10SM CLR 04/M05 A3045 RMK AO2 T00431049

TAF KLCK
Valid from the 12 at 18:00 until the 13 at 18:00 UTC


121730Z 1218/1318 14008KT P6SM BKN250
FM130500 16005KT P6SM SCT250
FM131500 17007KT P6SM BKN035 OVC050



MET'MAP, your aeronautical weather chart ! - Copyright ORBIFLY December 2007 - Disclaimer

ORBIFLY MET'MAP TEAM :

Programming & Development : Alexandra Zaïnal
Concept & original design : Baudouin d'Aumeries
Assistance for programming : Marc-Olivier Méhu
Technical & hardware support : Manuel Goepfert

Contact : metmap@orbifly.com




SOURCES & CREDITS :

   NOAA       Earth
Advisory